Time;durP1;ratioP1;P1;durP2;ratioP2;P2;SDS_P1;SDS_P2;PMS_P1;PMS_P2;Temp;Humidity;BMP_temperature;BMP_pressure;BME280_temperature;BME280_humidity;BME280_pressure;Samples;Min_cycle;Max_cycle;Signal;HPM_P1;HPM_P2
2022/10/08 00:01:04;;;;;;;;;;;12.60;77.10;;;;;;5078472;28;19974;-53
2022/10/08 00:03:32;;;;;;;;;;;12.60;78.80;;;;;;5078308;28;19916;-53
2022/10/08 00:05:58;;;;;;;;;;;12.70;79.70;;;;;;5078410;28;19927;-52
2022/10/08 00:08:25;;;;;;;;;;;12.70;78.10;;;;;;5078292;28;19958;-52
2022/10/08 00:10:59;;;;;;;;;;;12.60;79.60;;;;;;5078235;28;20412;-51
2022/10/08 00:13:25;;;;;;;;;;;12.70;79.70;;;;;;5079066;28;19908;-50
2022/10/08 00:15:51;;;;;;;;;;;12.70;78.90;;;;;;5078142;28;19908;-53
2022/10/08 00:18:17;;;;;;;;;;;12.70;78.40;;;;;;5078327;28;19909;-53
2022/10/08 00:20:43;;;;;;;;;;;12.70;78.90;;;;;;5078197;28;20342;-53
2022/10/08 00:23:09;;;;;;;;;;;12.70;78.20;;;;;;5078118;28;19919;-53
2022/10/08 00:25:41;;;;;;;;;;;12.80;80.60;;;;;;5078243;28;20431;-51
2022/10/08 00:28:12;;;;;;;;;;;12.80;80.70;;;;;;5078199;28;20003;-53
2022/10/08 00:30:38;;;;;;;;;;;12.90;82.90;;;;;;5078063;28;20402;-53
2022/10/08 00:33:05;;;;;;;;;;;12.90;80.00;;;;;;5077930;28;19909;-53
2022/10/08 00:35:35;;;;;;;;;;;12.90;80.20;;;;;;5078102;28;19909;-51
2022/10/08 00:38:01;;;;;;;;;;;13.00;79.60;;;;;;5077813;28;19909;-53
2022/10/08 00:40:27;;;;;;;;;;;13.10;79.40;;;;;;5077738;28;19931;-53
2022/10/08 00:42:53;;;;;;;;;;;13.20;84.90;;;;;;5078175;28;19908;-53
2022/10/08 00:45:18;;;;;;;;;;;13.30;84.00;;;;;;5078037;28;19909;-51
2022/10/08 00:47:46;;;;;;;;;;;13.40;83.80;;;;;;5077830;28;19909;-54
2022/10/08 00:50:14;;;;;;;;;;;13.50;83.40;;;;;;5077972;28;20292;-54
2022/10/08 00:52:42;;;;;;;;;;;13.60;82.40;;;;;;5077946;28;19915;-52
2022/10/08 00:55:08;;;;;;;;;;;13.60;80.60;;;;;;5077893;28;19920;-53
2022/10/08 00:57:35;;;;;;;;;;;13.60;79.70;;;;;;5077985;28;19908;-51
2022/10/08 01:00:27;;;;;;;;;;;13.60;80.00;;;;;;5077964;28;19946;-52
2022/10/08 01:02:53;;;;;;;;;;;13.60;79.50;;;;;;5073807;28;19912;-53
2022/10/08 01:05:29;;;;;;;;;;;13.60;79.80;;;;;;5077880;28;20387;-49
2022/10/08 01:08:24;;;;;;;;;;;13.60;80.10;;;;;;5078081;28;20019;-53
2022/10/08 01:10:50;;;;;;;;;;;13.60;80.80;;;;;;5060312;28;19914;-53
2022/10/08 01:13:40;;;;;;;;;;;13.60;82.40;;;;;;5077719;28;19999;-53
2022/10/08 01:16:23;;;;;;;;;;;13.70;81.20;;;;;;5067378;28;20326;-52
2022/10/08 01:18:49;;;;;;;;;;;13.70;82.20;;;;;;5077993;28;19974;-52
2022/10/08 01:21:46;;;;;;;;;;;13.70;80.60;;;;;;5077532;28;20130;-53
2022/10/08 01:24:11;;;;;;;;;;;13.70;82.30;;;;;;5063773;28;19908;-51
2022/10/08 01:26:46;;;;;;;;;;;13.80;81.70;;;;;;5081309;28;20011;-53
2022/10/08 01:29:20;;;;;;;;;;;13.80;80.60;;;;;;5082085;28;20370;-52
2022/10/08 01:31:47;;;;;;;;;;;13.80;83.40;;;;;;5081260;28;19952;-53
2022/10/08 01:34:18;;;;;;;;;;;13.90;80.80;;;;;;5081145;28;19995;-53
2022/10/08 01:36:45;;;;;;;;;;;13.90;80.80;;;;;;5081242;28;19908;-54
2022/10/08 01:39:14;;;;;;;;;;;14.00;82.90;;;;;;5081041;28;19987;-53
2022/10/08 01:41:41;;;;;;;;;;;14.00;83.30;;;;;;5081004;28;19912;-52
2022/10/08 01:44:13;;;;;;;;;;;14.00;81.10;;;;;;5080979;28;19908;-52
2022/10/08 01:46:41;;;;;;;;;;;14.10;80.70;;;;;;5081101;28;19912;-53
2022/10/08 01:49:09;;;;;;;;;;;14.10;80.20;;;;;;5081190;28;19948;-54
2022/10/08 01:51:38;;;;;;;;;;;14.10;80.80;;;;;;5081210;28;19915;-52
2022/10/08 01:54:05;;;;;;;;;;;14.10;84.60;;;;;;5080996;28;19916;-53
2022/10/08 01:56:32;;;;;;;;;;;14.10;82.50;;;;;;5080939;28;19912;-52
2022/10/08 01:59:07;;;;;;;;;;;14.10;86.80;;;;;;5081213;28;19916;-53
2022/10/08 02:01:51;;;;;;;;;;;14.10;85.80;;;;;;5080599;28;19913;-53
2022/10/08 02:04:33;;;;;;;;;;;14.10;87.60;;;;;;5080587;28;19915;-53
2022/10/08 02:07:04;;;;;;;;;;;14.00;89.10;;;;;;5080340;28;20342;-53
2022/10/08 02:09:32;;;;;;;;;;;14.00;90.00;;;;;;5080308;28;19959;-51
2022/10/08 02:11:57;;;;;;;;;;;14.00;88.50;;;;;;5080894;28;19913;-53
2022/10/08 02:14:25;;;;;;;;;;;14.00;90.60;;;;;;5080231;28;20291;-53
2022/10/08 02:16:56;;;;;;;;;;;14.00;87.20;;;;;;5080554;28;19915;-51
2022/10/08 02:19:21;;;;;;;;;;;14.00;90.40;;;;;;5062338;28;19909;-50
2022/10/08 02:21:51;;;;;;;;;;;14.00;89.70;;;;;;5080500;28;19938;-51
2022/10/08 02:24:20;;;;;;;;;;;14.00;90.30;;;;;;5080212;28;19943;-51
2022/10/08 02:26:52;;;;;;;;;;;13.90;90.50;;;;;;5080231;28;19912;-50
2022/10/08 02:29:20;;;;;;;;;;;13.90;89.40;;;;;;5080407;28;20076;-51
2022/10/08 02:31:49;;;;;;;;;;;13.90;88.40;;;;;;5080290;28;19958;-49
2022/10/08 02:34:18;;;;;;;;;;;14.00;90.70;;;;;;5079235;28;19915;-52
2022/10/08 02:36:46;;;;;;;;;;;13.90;90.50;;;;;;5080211;28;20275;-51
2022/10/08 02:39:13;;;;;;;;;;;13.90;89.30;;;;;;5079962;28;20439;-52
2022/10/08 02:41:49;;;;;;;;;;;13.90;89.90;;;;;;5080105;28;19913;-53
2022/10/08 02:44:19;;;;;;;;;;;13.90;90.10;;;;;;5080266;28;20007;-53
2022/10/08 02:46:48;;;;;;;;;;;13.90;89.50;;;;;;5080037;28;19908;-53
2022/10/08 02:49:16;;;;;;;;;;;13.80;90.60;;;;;;5079709;28;19908;-53
2022/10/08 02:51:48;;;;;;;;;;;13.90;90.70;;;;;;5079854;28;19913;-53
2022/10/08 02:54:14;;;;;;;;;;;13.90;90.40;;;;;;5079680;28;19919;-51
2022/10/08 02:56:59;;;;;;;;;;;13.90;90.50;;;;;;5079877;28;19917;-51
2022/10/08 02:59:25;;;;;;;;;;;13.80;87.00;;;;;;5079769;28;19915;-52
2022/10/08 03:01:56;;;;;;;;;;;13.80;90.60;;;;;;5079483;28;20325;-53
2022/10/08 03:04:27;;;;;;;;;;;13.80;89.60;;;;;;5079671;28;19931;-53
2022/10/08 03:06:53;;;;;;;;;;;13.80;90.00;;;;;;5079351;28;20367;-53
2022/10/08 03:09:20;;;;;;;;;;;13.80;88.60;;;;;;5079562;28;19909;-50
2022/10/08 03:11:47;;;;;;;;;;;13.70;89.30;;;;;;5079129;28;19972;-53
2022/10/08 03:14:13;;;;;;;;;;;13.70;87.40;;;;;;5079741;28;19908;-51
2022/10/08 03:16:40;;;;;;;;;;;13.70;86.20;;;;;;5079244;28;19919;-53
2022/10/08 03:19:10;;;;;;;;;;;13.70;89.70;;;;;;5079371;28;19916;-53
2022/10/08 03:21:38;;;;;;;;;;;13.70;88.30;;;;;;5079284;28;19951;-53
2022/10/08 03:24:07;;;;;;;;;;;13.70;88.10;;;;;;5078972;28;20428;-52
2022/10/08 03:26:33;;;;;;;;;;;13.60;86.10;;;;;;5078941;28;19908;-52
2022/10/08 03:28:58;;;;;;;;;;;13.60;87.80;;;;;;5078989;28;19915;-53
2022/10/08 03:31:24;;;;;;;;;;;13.60;86.30;;;;;;5079175;28;20294;-52
2022/10/08 03:33:50;;;;;;;;;;;13.60;87.10;;;;;;5078879;28;19916;-51
2022/10/08 03:36:16;;;;;;;;;;;13.60;86.80;;;;;;5079177;28;20012;-53
2022/10/08 03:38:42;;;;;;;;;;;13.60;86.00;;;;;;5079028;28;19952;-53
2022/10/08 03:41:08;;;;;;;;;;;13.60;87.90;;;;;;5078888;28;19983;-52
2022/10/08 03:43:34;;;;;;;;;;;13.60;90.10;;;;;;5078747;28;19992;-53
2022/10/08 03:46:00;;;;;;;;;;;13.60;89.90;;;;;;5078189;28;20365;-52
2022/10/08 03:48:25;;;;;;;;;;;13.60;86.90;;;;;;5078770;28;19909;-51
2022/10/08 03:50:51;;;;;;;;;;;13.60;86.90;;;;;;5079009;28;19987;-53
2022/10/08 03:53:17;;;;;;;;;;;13.70;85.50;;;;;;5078470;28;19986;-50
2022/10/08 03:55:43;;;;;;;;;;;13.70;86.60;;;;;;5078647;28;19909;-53
2022/10/08 03:58:09;;;;;;;;;;;13.70;89.10;;;;;;5078622;28;19934;-52
2022/10/08 04:00:34;;;;;;;;;;;13.70;87.30;;;;;;5078383;28;19908;-51
2022/10/08 04:03:00;;;;;;;;;;;13.60;85.70;;;;;;5078318;28;19952;-53
2022/10/08 04:05:26;;;;;;;;;;;13.60;87.80;;;;;;5078601;28;19963;-52
2022/10/08 04:07:51;;;;;;;;;;;13.60;86.60;;;;;;5078475;28;19990;-53
2022/10/08 04:10:17;;;;;;;;;;;13.60;87.30;;;;;;5078601;28;19908;-52
2022/10/08 04:12:42;;;;;;;;;;;13.70;86.30;;;;;;5078401;28;19915;-51
2022/10/08 04:15:08;;;;;;;;;;;13.60;86.00;;;;;;5078378;28;20350;-51
2022/10/08 04:17:34;;;;;;;;;;;13.60;85.30;;;;;;5078296;28;19909;-50
2022/10/08 04:19:59;;;;;;;;;;;13.60;86.00;;;;;;5078597;28;20007;-53
2022/10/08 04:22:25;;;;;;;;;;;13.60;87.20;;;;;;5077995;28;19921;-52
2022/10/08 04:24:50;;;;;;;;;;;13.60;86.00;;;;;;5078459;28;19985;-50
2022/10/08 04:27:16;;;;;;;;;;;13.60;86.40;;;;;;5078205;28;19915;-52
2022/10/08 04:29:41;;;;;;;;;;;13.60;84.80;;;;;;5078405;28;19908;-51
2022/10/08 04:32:07;;;;;;;;;;;13.60;84.20;;;;;;5078335;28;19930;-53
2022/10/08 04:34:33;;;;;;;;;;;13.60;86.10;;;;;;5077854;28;19962;-53
2022/10/08 04:36:58;;;;;;;;;;;13.60;85.00;;;;;;5077947;28;19952;-52
2022/10/08 04:39:24;;;;;;;;;;;13.60;85.60;;;;;;5078148;28;19908;-51
2022/10/08 04:41:49;;;;;;;;;;;13.60;85.80;;;;;;5078168;28;19936;-53
2022/10/08 04:44:15;;;;;;;;;;;13.60;85.30;;;;;;5077831;28;19909;-52
2022/10/08 04:46:40;;;;;;;;;;;13.60;86.80;;;;;;5078145;28;19909;-52
2022/10/08 04:49:08;;;;;;;;;;;13.60;84.90;;;;;;5078224;28;20379;-52
2022/10/08 04:51:33;;;;;;;;;;;13.60;86.40;;;;;;5078025;28;19908;-53
2022/10/08 04:54:00;;;;;;;;;;;13.60;85.00;;;;;;5077970;28;19931;-53
2022/10/08 04:56:27;;;;;;;;;;;13.60;85.70;;;;;;5078627;28;19915;-53
2022/10/08 04:58:56;;;;;;;;;;;13.70;88.20;;;;;;5082109;28;19908;-52
2022/10/08 05:01:22;;;;;;;;;;;13.70;86.20;;;;;;5081500;28;19955;-52
2022/10/08 05:03:48;;;;;;;;;;;13.70;85.30;;;;;;5082013;28;19909;-53
2022/10/08 05:06:15;;;;;;;;;;;13.70;85.00;;;;;;5081594;28;19951;-53
2022/10/08 05:08:41;;;;;;;;;;;13.70;89.30;;;;;;5081894;28;19908;-52
2022/10/08 05:11:07;;;;;;;;;;;13.70;89.70;;;;;;5082121;28;19930;-53
2022/10/08 05:13:33;;;;;;;;;;;13.70;89.40;;;;;;5081601;28;19908;-50
2022/10/08 05:16:05;;;;;;;;;;;13.70;90.00;;;;;;5081810;28;20276;-53
2022/10/08 05:18:32;;;;;;;;;;;13.60;89.20;;;;;;5081571;28;19912;-53
2022/10/08 05:21:01;;;;;;;;;;;13.60;87.70;;;;;;5081557;28;19920;-53
2022/10/08 05:23:27;;;;;;;;;;;13.60;86.40;;;;;;5081670;28;19958;-52
2022/10/08 05:25:52;;;;;;;;;;;13.60;88.70;;;;;;5081533;28;19912;-52
2022/10/08 05:28:18;;;;;;;;;;;13.60;86.80;;;;;;5081548;28;19948;-51
2022/10/08 05:30:43;;;;;;;;;;;13.60;88.90;;;;;;5081423;28;19908;-52
2022/10/08 05:33:09;;;;;;;;;;;13.60;88.40;;;;;;5081353;28;19912;-50
2022/10/08 05:35:37;;;;;;;;;;;13.60;87.40;;;;;;5081365;28;19909;-49
2022/10/08 05:38:03;;;;;;;;;;;13.70;87.20;;;;;;5081352;28;20012;-53
2022/10/08 05:40:29;;;;;;;;;;;13.60;90.00;;;;;;5081363;28;19959;-51
2022/10/08 05:42:55;;;;;;;;;;;13.60;86.40;;;;;;5081108;28;19909;-53
2022/10/08 05:45:22;;;;;;;;;;;13.60;89.70;;;;;;5081232;28;19908;-52
2022/10/08 05:47:48;;;;;;;;;;;13.50;87.20;;;;;;5081394;28;20375;-52
2022/10/08 05:50:13;;;;;;;;;;;13.50;88.40;;;;;;5081027;28;19909;-52
2022/10/08 05:52:39;;;;;;;;;;;13.50;86.70;;;;;;5080851;28;20279;-50
2022/10/08 05:55:05;;;;;;;;;;;13.50;86.30;;;;;;5080808;28;19909;-53
2022/10/08 05:57:31;;;;;;;;;;;13.50;88.20;;;;;;5080908;28;19916;-53
2022/10/08 05:59:57;;;;;;;;;;;13.50;88.40;;;;;;5080902;28;20014;-53
2022/10/08 06:02:22;;;;;;;;;;;13.50;88.00;;;;;;5080543;28;19913;-52
2022/10/08 06:04:48;;;;;;;;;;;13.50;87.30;;;;;;5080884;28;19919;-52
2022/10/08 06:07:14;;;;;;;;;;;13.50;85.90;;;;;;5079923;28;19974;-52
2022/10/08 06:09:39;;;;;;;;;;;13.50;87.50;;;;;;5080579;28;19908;-54
2022/10/08 06:12:07;;;;;;;;;;;13.50;86.70;;;;;;5081002;28;19908;-53
2022/10/08 06:14:33;;;;;;;;;;;13.50;88.10;;;;;;5080586;28;19908;-52
2022/10/08 06:16:58;;;;;;;;;;;13.50;89.60;;;;;;5080519;28;20332;-53
2022/10/08 06:19:24;;;;;;;;;;;13.50;90.00;;;;;;5080382;28;19909;-53
2022/10/08 06:21:49;;;;;;;;;;;13.40;87.10;;;;;;5080568;28;19924;-52
2022/10/08 06:24:15;;;;;;;;;;;13.40;89.70;;;;;;5080002;28;19908;-50
2022/10/08 06:26:42;;;;;;;;;;;13.40;88.30;;;;;;5086924;28;19912;-53
2022/10/08 06:29:09;;;;;;;;;;;13.40;89.00;;;;;;5080540;28;19915;-51
2022/10/08 06:31:35;;;;;;;;;;;13.40;88.90;;;;;;5061800;28;19931;-51
2022/10/08 06:34:03;;;;;;;;;;;13.30;87.60;;;;;;5084842;28;19912;-52
2022/10/08 06:36:29;;;;;;;;;;;13.30;88.80;;;;;;5095982;28;19912;-51
2022/10/08 06:38:56;;;;;;;;;;;13.30;90.10;;;;;;5099935;28;19999;-53
2022/10/08 06:41:22;;;;;;;;;;;13.20;88.20;;;;;;5100237;28;19973;-53
2022/10/08 06:43:48;;;;;;;;;;;13.20;89.50;;;;;;5100017;28;19955;-52
2022/10/08 06:46:14;;;;;;;;;;;13.10;90.20;;;;;;5100469;28;19908;-51
2022/10/08 06:48:39;;;;;;;;;;;13.10;89.10;;;;;;5099921;28;19916;-48
2022/10/08 06:51:06;;;;;;;;;;;13.20;89.10;;;;;;5099745;28;19915;-50
2022/10/08 06:53:33;;;;;;;;;;;13.10;87.70;;;;;;5099792;28;19915;-53
2022/10/08 06:55:59;;;;;;;;;;;13.10;88.50;;;;;;5081404;28;19912;-51
2022/10/08 06:58:25;;;;;;;;;;;13.10;89.40;;;;;;5099905;28;19909;-47
2022/10/08 07:01:01;;;;;;;;;;;13.00;87.60;;;;;;5099785;28;19955;-50
2022/10/08 07:03:27;;;;;;;;;;;13.00;89.00;;;;;;5099240;28;19912;-50
2022/10/08 07:05:52;;;;;;;;;;;13.00;87.70;;;;;;5099582;28;19967;-47
2022/10/08 07:08:18;;;;;;;;;;;13.00;88.00;;;;;;5099527;28;19912;-48
2022/10/08 07:10:43;;;;;;;;;;;13.00;87.90;;;;;;5099672;28;19908;-51
2022/10/08 07:13:09;;;;;;;;;;;13.00;86.90;;;;;;5099572;28;19912;-50
2022/10/08 07:15:35;;;;;;;;;;;13.00;86.40;;;;;;5093649;28;19912;-49
2022/10/08 07:18:00;;;;;;;;;;;13.00;86.70;;;;;;5080255;28;19918;-53
2022/10/08 07:20:26;;;;;;;;;;;13.00;90.00;;;;;;5078407;28;19915;-48
2022/10/08 07:22:51;;;;;;;;;;;13.10;89.90;;;;;;5079140;28;20387;-48
2022/10/08 07:25:17;;;;;;;;;;;13.10;90.60;;;;;;5079126;28;19909;-52
2022/10/08 07:27:43;;;;;;;;;;;13.20;90.40;;;;;;5078915;28;20006;-47
2022/10/08 07:30:09;;;;;;;;;;;13.20;90.40;;;;;;5078897;28;19909;-50
2022/10/08 07:32:34;;;;;;;;;;;13.30;88.20;;;;;;5078859;28;20244;-52
2022/10/08 07:35:00;;;;;;;;;;;13.40;88.20;;;;;;5078970;28;19952;-49
2022/10/08 07:37:26;;;;;;;;;;;13.40;88.70;;;;;;5078456;28;20345;-51
2022/10/08 07:39:51;;;;;;;;;;;13.40;89.00;;;;;;5078677;28;19908;-50
2022/10/08 07:42:17;;;;;;;;;;;13.40;87.60;;;;;;5078937;28;19912;-48
2022/10/08 07:44:42;;;;;;;;;;;13.30;88.80;;;;;;5078864;28;19908;-48
2022/10/08 07:47:08;;;;;;;;;;;13.30;89.40;;;;;;5060314;28;19912;-47
2022/10/08 07:49:34;;;;;;;;;;;13.30;89.30;;;;;;5078260;28;19909;-51
2022/10/08 07:52:00;;;;;;;;;;;13.30;89.50;;;;;;5078921;28;19921;-49
2022/10/08 07:54:25;;;;;;;;;;;13.30;87.90;;;;;;5078461;28;19909;-47
2022/10/08 07:56:51;;;;;;;;;;;13.30;87.80;;;;;;5081770;28;19916;-53
2022/10/08 07:59:17;;;;;;;;;;;13.30;90.00;;;;;;5086500;28;19915;-48
2022/10/08 08:01:42;;;;;;;;;;;13.30;88.00;;;;;;5087795;28;19973;-52
2022/10/08 08:04:09;;;;;;;;;;;13.30;90.10;;;;;;5085848;28;19913;-55
2022/10/08 08:06:42;;;;;;;;;;;13.40;90.30;;;;;;5087643;28;19926;-54
2022/10/08 08:09:08;;;;;;;;;;;13.40;90.30;;;;;;5095424;28;19954;-55
2022/10/08 08:11:34;;;;;;;;;;;13.40;90.90;;;;;;5095642;28;20663;-55
2022/10/08 08:13:59;;;;;;;;;;;13.50;90.60;;;;;;5088574;28;19975;-54
2022/10/08 08:16:26;;;;;;;;;;;13.50;90.50;;;;;;5087660;28;19908;-54
2022/10/08 08:18:53;;;;;;;;;;;13.60;90.90;;;;;;5085335;28;19915;-55
2022/10/08 08:21:20;;;;;;;;;;;13.70;90.80;;;;;;5087066;28;19924;-53
2022/10/08 08:23:47;;;;;;;;;;;13.80;90.20;;;;;;5086857;28;19916;-52
2022/10/08 08:26:14;;;;;;;;;;;13.90;90.50;;;;;;5085522;28;19908;-53
2022/10/08 08:28:40;;;;;;;;;;;14.00;90.00;;;;;;5089237;28;20367;-52
2022/10/08 08:31:07;;;;;;;;;;;14.10;90.30;;;;;;5086916;28;19923;-51
2022/10/08 08:33:33;;;;;;;;;;;14.20;90.30;;;;;;5084699;28;19916;-54
2022/10/08 08:35:58;;;;;;;;;;;14.40;90.30;;;;;;5082083;28;19916;-55
2022/10/08 08:38:24;;;;;;;;;;;14.50;90.40;;;;;;5086417;28;20386;-54
2022/10/08 08:40:51;;;;;;;;;;;14.70;90.10;;;;;;5085181;28;20065;-54
2022/10/08 08:43:17;;;;;;;;;;;14.80;90.30;;;;;;5087296;28;19916;-54
2022/10/08 08:45:44;;;;;;;;;;;15.10;90.50;;;;;;5086196;28;20291;-55
2022/10/08 08:48:25;;;;;;;;;;;15.50;91.00;;;;;;5098029;28;19958;-55
2022/10/08 08:50:55;;;;;;;;;;;15.80;89.10;;;;;;5097709;28;19916;-54
2022/10/08 08:53:21;;;;;;;;;;;15.80;87.10;;;;;;5097942;28;20247;-54
2022/10/08 08:55:49;;;;;;;;;;;15.70;87.50;;;;;;5098283;28;20352;-54
2022/10/08 08:58:14;;;;;;;;;;;15.80;87.00;;;;;;5097874;28;19954;-54
2022/10/08 09:00:41;;;;;;;;;;;15.80;85.90;;;;;;5097953;28;19908;-54
2022/10/08 09:03:40;;;;;;;;;;;15.50;85.20;;;;;;5097508;28;20359;-54
2022/10/08 09:06:10;;;;;;;;;;;15.50;86.40;;;;;;5041758;28;20462;-53
2022/10/08 09:08:56;;;;;;;;;;;15.60;86.50;;;;;;5097629;28;19962;-54
2022/10/08 09:11:23;;;;;;;;;;;15.60;86.80;;;;;;5097884;28;19915;-55
2022/10/08 09:14:07;;;;;;;;;;;15.60;83.90;;;;;;5097503;28;20413;-55
2022/10/08 09:16:33;;;;;;;;;;;15.70;84.80;;;;;;5097661;28;19914;-54
2022/10/08 09:18:59;;;;;;;;;;;15.90;84.40;;;;;;5097628;28;19919;-55
2022/10/08 09:21:28;;;;;;;;;;;16.40;87.20;;;;;;5097931;28;19967;-54
2022/10/08 09:23:53;;;;;;;;;;;17.10;84.70;;;;;;5097944;28;20332;-54
2022/10/08 09:26:20;;;;;;;;;;;18.30;81.00;;;;;;5098015;28;19958;-55
2022/10/08 09:28:48;;;;;;;;;;;19.80;90.80;;;;;;5097788;28;19915;-55
2022/10/08 09:31:16;;;;;;;;;;;21.00;72.50;;;;;;5097850;28;19908;-53
2022/10/08 09:33:42;;;;;;;;;;;21.70;73.80;;;;;;5097178;28;20352;-54
2022/10/08 09:36:08;;;;;;;;;;;22.00;67.40;;;;;;5097774;28;19916;-55
2022/10/08 09:38:35;;;;;;;;;;;22.60;66.60;;;;;;5097819;28;19914;-55
2022/10/08 09:41:02;;;;;;;;;;;22.50;63.40;;;;;;5097369;28;19916;-55
2022/10/08 09:43:28;;;;;;;;;;;23.30;63.80;;;;;;5100126;28;19915;-54
2022/10/08 09:45:54;;;;;;;;;;;23.20;65.80;;;;;;5101433;28;19908;-55
2022/10/08 09:48:21;;;;;;;;;;;23.50;70.00;;;;;;5101125;28;20375;-55
2022/10/08 09:50:51;;;;;;;;;;;24.30;61.40;;;;;;5101148;28;19908;-55
2022/10/08 09:53:17;;;;;;;;;;;25.40;62.80;;;;;;5100886;28;19908;-55
2022/10/08 09:56:03;;;;;;;;;;;24.00;56.10;;;;;;5101101;28;19908;-54
2022/10/08 09:58:30;;;;;;;;;;;23.90;54.70;;;;;;5100500;28;19916;-55
2022/10/08 10:01:04;;;;;;;;;;;24.00;56.90;;;;;;5100862;28;19965;-55
2022/10/08 10:03:29;;;;;;;;;;;23.90;54.80;;;;;;5100719;28;19908;-55
2022/10/08 10:05:55;;;;;;;;;;;24.40;60.60;;;;;;5100797;28;19995;-54
2022/10/08 10:08:39;;;;;;;;;;;24.60;51.90;;;;;;5100687;28;19908;-55
2022/10/08 10:11:05;;;;;;;;;;;24.30;53.90;;;;;;5101127;28;19908;-55
2022/10/08 10:13:33;;;;;;;;;;;24.40;51.60;;;;;;5100358;28;20401;-54
2022/10/08 10:16:00;;;;;;;;;;;24.70;52.10;;;;;;5100484;28;19915;-54
2022/10/08 10:18:55;;;;;;;;;;;24.70;49.20;;;;;;5100684;28;19930;-54
2022/10/08 10:21:47;;;;;;;;;;;24.80;50.30;;;;;;5078236;28;19979;-55
2022/10/08 10:24:12;;;;;;;;;;;24.80;50.70;;;;;;5061620;28;19908;-54
2022/10/08 10:26:40;;;;;;;;;;;24.40;46.20;;;;;;5100471;28;19960;-55
2022/10/08 10:29:11;;;;;;;;;;;24.10;50.90;;;;;;5100390;28;19908;-54
2022/10/08 10:31:40;;;;;;;;;;;24.80;54.70;;;;;;5100124;28;19908;-54
2022/10/08 10:34:26;;;;;;;;;;;25.50;49.50;;;;;;5081881;28;19912;-54
2022/10/08 10:37:00;;;;;;;;;;;25.70;46.40;;;;;;5099387;28;20315;-55
2022/10/08 10:39:34;;;;;;;;;;;26.00;46.90;;;;;;5100244;28;20309;-55
2022/10/08 10:42:14;;;;;;;;;;;26.50;50.10;;;;;;5100158;28;19995;-55
2022/10/08 10:45:00;;;;;;;;;;;26.20;47.40;;;;;;5082455;28;19915;-55
2022/10/08 10:47:29;;;;;;;;;;;26.90;47.60;;;;;;5099195;28;19908;-55
2022/10/08 10:49:55;;;;;;;;;;;27.10;50.30;;;;;;5100397;28;19908;-55
2022/10/08 10:52:40;;;;;;;;;;;27.80;51.30;;;;;;5099753;28;19916;-55
2022/10/08 10:55:08;;;;;;;;;;;27.80;42.60;;;;;;5099116;28;19915;-55
2022/10/08 10:57:40;;;;;;;;;;;27.30;43.20;;;;;;5099777;28;19962;-55
2022/10/08 11:00:06;;;;;;;;;;;25.90;41.80;;;;;;5099912;28;20287;-53
2022/10/08 11:02:48;;;;;;;;;;;26.60;46.20;;;;;;5099852;28;19912;-53
2022/10/08 11:05:14;;;;;;;;;;;27.30;41.60;;;;;;5099723;28;20020;-55
2022/10/08 11:07:41;;;;;;;;;;;26.90;43.70;;;;;;5099578;28;20414;-55
2022/10/08 11:10:13;;;;;;;;;;;27.90;40.80;;;;;;5099128;28;19908;-55
2022/10/08 11:12:40;;;;;;;;;;;28.20;49.70;;;;;;5099711;28;19908;-55
2022/10/08 11:15:12;;;;;;;;;;;28.40;38.70;;;;;;5099303;28;19958;-55
2022/10/08 11:17:54;;;;;;;;;;;29.00;42.10;;;;;;5099449;28;19916;-55
2022/10/08 11:20:19;;;;;;;;;;;28.80;37.60;;;;;;5099746;28;19912;-55
2022/10/08 11:22:51;;;;;;;;;;;29.60;40.20;;;;;;5099309;28;19916;-55
2022/10/08 11:25:29;;;;;;;;;;;30.60;41.30;;;;;;5099221;28;19949;-54
2022/10/08 11:28:05;;;;;;;;;;;31.40;40.80;;;;;;5099362;28;19908;-55
2022/10/08 11:30:36;;;;;;;;;;;30.50;37.00;;;;;;5099155;28;19908;-55
2022/10/08 11:33:03;;;;;;;;;;;30.60;39.20;;;;;;5098715;28;19909;-55
2022/10/08 11:35:49;;;;;;;;;;;30.70;35.10;;;;;;5098912;28;19923;-55
2022/10/08 11:38:14;;;;;;;;;;;30.80;42.00;;;;;;5081116;28;19908;-56
2022/10/08 11:40:46;;;;;;;;;;;31.40;34.90;;;;;;5099052;28;19915;-55
2022/10/08 11:43:36;;;;;;;;;;;30.60;33.20;;;;;;5098862;28;19908;-55
2022/10/08 11:46:21;;;;;;;;;;;30.50;38.10;;;;;;5098868;28;20334;-55
2022/10/08 11:48:50;;;;;;;;;;;31.20;41.20;;;;;;5098635;28;19909;-56
2022/10/08 11:51:19;;;;;;;;;;;30.30;36.60;;;;;;5099041;28;19915;-53
2022/10/08 11:54:03;;;;;;;;;;;30.50;38.80;;;;;;5098850;28;19908;-55
2022/10/08 11:56:29;;;;;;;;;;;31.10;37.30;;;;;;5098645;28;19912;-54
2022/10/08 11:58:56;;;;;;;;;;;30.30;34.30;;;;;;5098816;28;19953;-55
2022/10/08 12:01:22;;;;;;;;;;;30.50;37.10;;;;;;5098444;28;19912;-56
2022/10/08 12:04:08;;;;;;;;;;;31.10;38.80;;;;;;5098256;28;19915;-55
2022/10/08 12:06:34;;;;;;;;;;;32.10;43.50;;;;;;5097400;28;19916;-56
2022/10/08 12:09:02;;;;;;;;;;;32.30;33.30;;;;;;5098570;28;19915;-54
2022/10/08 12:11:28;;;;;;;;;;;32.60;34.60;;;;;;5098155;28;20413;-55
2022/10/08 12:14:13;;;;;;;;;;;32.00;32.40;;;;;;5098342;28;19908;-55
2022/10/08 12:16:44;;;;;;;;;;;32.10;36.70;;;;;;5098394;28;20325;-55
2022/10/08 12:19:30;;;;;;;;;;;31.00;33.70;;;;;;5098438;28;19912;-55
2022/10/08 12:21:55;;;;;;;;;;;30.50;35.20;;;;;;5097910;28;19977;-55
2022/10/08 12:24:36;;;;;;;;;;;29.40;32.90;;;;;;5098679;28;19908;-55
2022/10/08 12:27:22;;;;;;;;;;;29.20;33.50;;;;;;5098116;28;19912;-55
2022/10/08 12:29:57;;;;;;;;;;;28.10;33.90;;;;;;5097302;28;19908;-54
2022/10/08 12:32:27;;;;;;;;;;;28.40;33.90;;;;;;5098325;28;19908;-55
2022/10/08 12:34:53;;;;;;;;;;;27.90;32.70;;;;;;5098350;28;19909;-54
2022/10/08 12:37:28;;;;;;;;;;;27.50;34.60;;;;;;5098024;28;19970;-55
2022/10/08 12:39:54;;;;;;;;;;;28.10;36.70;;;;;;5097729;28;19908;-55
2022/10/08 12:42:24;;;;;;;;;;;27.50;34.30;;;;;;5098207;28;19962;-56
2022/10/08 12:44:49;;;;;;;;;;;27.80;38.50;;;;;;5098114;28;20309;-55
2022/10/08 12:47:21;;;;;;;;;;;28.10;37.00;;;;;;5098018;28;19915;-55
2022/10/08 12:49:59;;;;;;;;;;;28.20;36.60;;;;;;5097637;28;19934;-55
2022/10/08 12:52:25;;;;;;;;;;;28.50;35.20;;;;;;5098274;28;20283;-53
2022/10/08 12:54:51;;;;;;;;;;;28.90;38.80;;;;;;5097878;28;19908;-53
2022/10/08 12:57:22;;;;;;;;;;;29.50;37.60;;;;;;5097809;28;19909;-54
2022/10/08 12:59:49;;;;;;;;;;;28.80;32.40;;;;;;5097757;28;19908;-56
2022/10/08 13:02:23;;;;;;;;;;;28.70;32.50;;;;;;5097887;28;19912;-55
2022/10/08 13:04:49;;;;;;;;;;;28.90;33.70;;;;;;5096921;28;19912;-55
2022/10/08 13:07:25;;;;;;;;;;;28.80;36.50;;;;;;5097146;28;19922;-55
2022/10/08 13:09:55;;;;;;;;;;;29.40;37.20;;;;;;5097800;28;19915;-55
2022/10/08 13:12:20;;;;;;;;;;;29.30;32.70;;;;;;5097709;28;20270;-55
2022/10/08 13:14:56;;;;;;;;;;;28.90;32.30;;;;;;5097980;28;19909;-55
2022/10/08 13:17:40;;;;;;;;;;;28.80;33.50;;;;;;5098992;28;19908;-55
2022/10/08 13:20:13;;;;;;;;;;;29.10;33.00;;;;;;5101714;28;19908;-55
2022/10/08 13:22:38;;;;;;;;;;;28.50;34.00;;;;;;5101791;28;19920;-55
2022/10/08 13:25:04;;;;;;;;;;;27.90;32.50;;;;;;5101595;28;19954;-53
2022/10/08 13:27:31;;;;;;;;;;;27.70;32.80;;;;;;5101958;28;20308;-54
2022/10/08 13:29:57;;;;;;;;;;;28.00;32.40;;;;;;5101255;28;19916;-54
2022/10/08 13:32:24;;;;;;;;;;;27.30;32.70;;;;;;5101664;28;19908;-54
2022/10/08 13:34:59;;;;;;;;;;;27.00;33.40;;;;;;5101627;28;19954;-55
2022/10/08 13:37:25;;;;;;;;;;;26.80;32.10;;;;;;5101311;28;19915;-55
2022/10/08 13:39:51;;;;;;;;;;;27.00;34.30;;;;;;5101555;28;19908;-55
2022/10/08 13:42:18;;;;;;;;;;;27.50;33.30;;;;;;5101430;28;19966;-55
2022/10/08 13:44:44;;;;;;;;;;;27.10;33.50;;;;;;5101217;28;19959;-55
2022/10/08 13:47:13;;;;;;;;;;;27.80;35.20;;;;;;5101117;28;19912;-55
2022/10/08 13:49:39;;;;;;;;;;;28.10;34.80;;;;;;5101386;28;20353;-54
2022/10/08 13:52:05;;;;;;;;;;;28.50;35.30;;;;;;5101064;28;19908;-55
2022/10/08 13:54:32;;;;;;;;;;;28.70;32.50;;;;;;5101528;28;19908;-55
2022/10/08 13:56:57;;;;;;;;;;;28.20;31.70;;;;;;5100835;28;19908;-55
2022/10/08 13:59:23;;;;;;;;;;;27.50;33.40;;;;;;5100718;28;19915;-55
2022/10/08 14:01:49;;;;;;;;;;;26.70;33.30;;;;;;5100926;28;19916;-54
2022/10/08 14:04:15;;;;;;;;;;;26.80;32.70;;;;;;5100827;28;20271;-54
2022/10/08 14:06:43;;;;;;;;;;;26.30;33.90;;;;;;5100549;28;19916;-55
2022/10/08 14:09:13;;;;;;;;;;;26.40;33.50;;;;;;5101117;28;19964;-55
2022/10/08 14:11:41;;;;;;;;;;;26.70;34.10;;;;;;5100877;28;19912;-54
2022/10/08 14:14:10;;;;;;;;;;;26.30;32.60;;;;;;5100709;28;19933;-54
2022/10/08 14:16:35;;;;;;;;;;;26.60;34.90;;;;;;5100610;28;19909;-54
2022/10/08 14:19:01;;;;;;;;;;;27.00;33.50;;;;;;5100287;28;20322;-55
2022/10/08 14:21:26;;;;;;;;;;;26.90;33.80;;;;;;5100384;28;19916;-55
2022/10/08 14:23:52;;;;;;;;;;;26.70;33.40;;;;;;5100492;28;19943;-55
2022/10/08 14:26:18;;;;;;;;;;;26.70;33.40;;;;;;5100775;28;20279;-54